Time;durP1;ratioP1;P1;durP2;ratioP2;P2;SDS_P1;SDS_P2;PMS_P1;PMS_P2;Temp;Humidity;BMP_temperature;BMP_pressure;BME280_temperature;BME280_humidity;BME280_pressure;Samples;Min_cycle;Max_cycle;Signal;HPM_P1;HPM_P2
2021/09/02 04:17:06;;;;;;;;;4.00;4.00;;;;;;;;6492573;46;9815;-68
2021/09/02 04:23:09;;;;;;;;;7.67;7.67;;;;;;;;6491280;46;8996;-67
2021/09/02 04:29:11;;;;;;;;;7.00;7.00;;;;;;;;6493509;39;8946;-67
2021/09/02 04:35:14;;;;;;;;;8.00;7.33;;;;;;;;6491960;31;8940;-67
2021/09/02 04:41:16;;;;;;;;;8.00;8.00;;;;;;;;6491827;39;9802;-68
2021/09/02 04:47:18;;;;;;;;;8.67;7.67;;;;;;;;6493184;31;8968;-66
2021/09/02 04:53:20;;;;;;;;;10.33;8.67;;;;;;;;6492430;39;9024;-67
2021/09/02 04:59:23;;;;;;;;;8.67;8.67;;;;;;;;6492291;46;8928;-67
2021/09/02 05:05:25;;;;;;;;;13.00;13.00;;;;;;;;6492711;31;8983;-68
2021/09/02 05:11:27;;;;;;;;;11.67;9.67;;;;;;;;6491302;31;9083;-67
2021/09/02 05:17:30;;;;;;;;;11.33;11.33;;;;;;;;6492142;31;8982;-67
2021/09/02 05:23:34;;;;;;;;;12.67;12.00;;;;;;;;6491305;39;9078;-67
2021/09/02 05:29:36;;;;;;;;;12.00;11.50;;;;;;;;6491048;39;9582;-68
2021/09/02 05:35:39;;;;;;;;;16.67;15.00;;;;;;;;6491106;39;9003;-69
2021/09/02 05:41:41;;;;;;;;;18.33;14.33;;;;;;;;6490639;39;9015;-68
2021/09/02 05:47:45;;;;;;;;;14.67;14.67;;;;;;;;6490304;39;9611;-67
2021/09/02 05:53:47;;;;;;;;;20.00;15.67;;;;;;;;6488797;39;9106;-67
2021/09/02 05:59:49;;;;;;;;;19.33;15.67;;;;;;;;6487839;47;9156;-67
2021/09/02 06:05:52;;;;;;;;;17.00;15.00;;;;;;;;6486917;31;9034;-68
2021/09/02 06:11:55;;;;;;;;;11.00;11.00;;;;;;;;6486310;31;8995;-67
2021/09/02 06:17:57;;;;;;;;;20.00;17.33;;;;;;;;6488873;39;9656;-68
2021/09/02 06:24:00;;;;;;;;;17.67;15.33;;;;;;;;6488139;39;8987;-68
2021/09/02 06:30:04;;;;;;;;;14.33;10.33;;;;;;;;6488352;46;8964;-67
2021/09/02 06:36:07;;;;;;;;;15.00;14.67;;;;;;;;6485251;39;9670;-70
2021/09/02 06:42:09;;;;;;;;;15.00;14.33;;;;;;;;6487177;39;9005;-71
2021/09/02 06:48:11;;;;;;;;;17.00;16.00;;;;;;;;6488351;39;9011;-68
2021/09/02 06:54:14;;;;;;;;;15.33;15.33;;;;;;;;6487537;39;9017;-70
2021/09/02 07:00:16;;;;;;;;;16.67;14.33;;;;;;;;6487656;39;8939;-68
2021/09/02 07:06:18;;;;;;;;;20.67;18.00;;;;;;;;6486788;46;9009;-69
2021/09/02 07:12:21;;;;;;;;;20.00;17.33;;;;;;;;6486586;46;8989;-67
2021/09/02 07:18:23;;;;;;;;;15.33;13.67;;;;;;;;6488609;46;8996;-71
2021/09/02 07:24:25;;;;;;;;;13.33;12.67;;;;;;;;6486607;46;8987;-68
2021/09/02 07:30:31;;;;;;;;;35.00;29.00;;;;;;;;6485361;31;9101;-69
2021/09/02 07:36:35;;;;;;;;;31.33;28.67;;;;;;;;6483726;31;9054;-68
2021/09/02 07:42:44;;;;;;;;;14.00;12.75;;;;;;;;6484061;31;9119;-69
2021/09/02 07:48:47;;;;;;;;;16.33;15.00;;;;;;;;6485762;39;9682;-68
2021/09/02 07:54:49;;;;;;;;;19.33;16.67;;;;;;;;6485324;46;8989;-70
2021/09/02 08:00:51;;;;;;;;;15.50;13.00;;;;;;;;6484633;39;8951;-69
2021/09/02 08:06:53;;;;;;;;;17.67;17.67;;;;;;;;6482487;39;9753;-68
2021/09/02 08:12:56;;;;;;;;;5.75;5.75;;;;;;;;6482083;39;9619;-69
2021/09/02 08:18:58;;;;;;;;;5.25;4.25;;;;;;;;6483475;46;9061;-69
2021/09/02 08:25:01;;;;;;;;;3.00;3.00;;;;;;;;6485933;39;9042;-68
2021/09/02 08:31:03;;;;;;;;;2.75;2.00;;;;;;;;6486490;46;8990;-70
2021/09/02 08:37:06;;;;;;;;;4.50;4.50;;;;;;;;6486948;46;9003;-71
2021/09/02 08:43:08;;;;;;;;;6.25;4.50;;;;;;;;6486670;39;9028;-68
2021/09/02 08:49:12;;;;;;;;;3.50;3.50;;;;;;;;6487705;39;9022;-68
2021/09/02 08:55:15;;;;;;;;;5.50;5.25;;;;;;;;6486309;47;9216;-69
2021/09/02 09:01:17;;;;;;;;;3.50;3.00;;;;;;;;6485527;31;9107;-69
2021/09/02 09:07:28;;;;;;;;;7.50;4.50;;;;;;;;6484405;39;8979;-68
2021/09/02 09:13:30;;;;;;;;;3.50;3.50;;;;;;;;6486527;39;9703;-68
2021/09/02 09:19:41;;;;;;;;;3.00;3.00;;;;;;;;6485370;39;8982;-68
2021/09/02 09:25:43;;;;;;;;;3.50;3.50;;;;;;;;6483832;39;9209;-69
2021/09/02 09:31:46;;;;;;;;;4.75;4.75;;;;;;;;6484420;39;9025;-67
2021/09/02 09:38:01;;;;;;;;;3.25;2.50;;;;;;;;6484575;39;9043;-69
2021/09/02 09:44:20;;;;;;;;;3.25;3.25;;;;;;;;6483975;31;8981;-69
2021/09/02 09:50:22;;;;;;;;;3.75;3.75;;;;;;;;6483814;39;9776;-69
2021/09/02 09:56:26;;;;;;;;;2.25;2.00;;;;;;;;6483458;39;9043;-68
2021/09/02 10:02:30;;;;;;;;;3.25;2.25;;;;;;;;6486427;39;9029;-68
2021/09/02 10:08:35;;;;;;;;;3.00;3.00;;;;;;;;6485579;46;9069;-70
2021/09/02 10:14:38;;;;;;;;;5.25;4.50;;;;;;;;6486186;39;9705;-69
2021/09/02 10:20:41;;;;;;;;;8.00;5.75;;;;;;;;6486430;31;9111;-69
2021/09/02 10:26:45;;;;;;;;;6.25;5.25;;;;;;;;6486244;39;9067;-69
2021/09/02 10:32:51;;;;;;;;;8.25;5.75;;;;;;;;6485918;31;9046;-68
2021/09/02 10:38:57;;;;;;;;;5.75;4.75;;;;;;;;6485367;39;9047;-68
2021/09/02 10:44:59;;;;;;;;;4.75;4.75;;;;;;;;6486220;46;8990;-68
2021/09/02 10:51:35;;;;;;;;;5.50;4.50;;;;;;;;6485970;39;9066;-68
2021/09/02 10:57:37;;;;;;;;;3.00;3.00;;;;;;;;6483668;46;9022;-68
2021/09/02 11:03:40;;;;;;;;;3.25;3.25;;;;;;;;6483451;39;9782;-68
2021/09/02 11:09:42;;;;;;;;;3.50;3.50;;;;;;;;6485119;46;9030;-69
2021/09/02 11:15:45;;;;;;;;;5.75;5.75;;;;;;;;6487060;46;9004;-68
2021/09/02 11:21:47;;;;;;;;;3.25;3.25;;;;;;;;6486847;39;8971;-68
2021/09/02 11:27:58;;;;;;;;;5.00;5.00;;;;;;;;6485793;39;8945;-68
2021/09/02 11:34:02;;;;;;;;;4.75;4.25;;;;;;;;6486624;39;8971;-68
2021/09/02 11:40:06;;;;;;;;;9.00;6.00;;;;;;;;6486886;39;8996;-69
2021/09/02 11:46:11;;;;;;;;;9.75;6.75;;;;;;;;6488806;31;8939;-69
2021/09/02 11:52:13;;;;;;;;;5.00;5.00;;;;;;;;6488368;39;9716;-69
2021/09/02 11:58:25;;;;;;;;;4.50;4.50;;;;;;;;6488943;31;8990;-69
2021/09/02 12:04:30;;;;;;;;;5.25;5.25;;;;;;;;6488357;39;9015;-68
2021/09/02 12:10:32;;;;;;;;;6.50;5.00;;;;;;;;6486525;39;8995;-69
2021/09/02 12:16:34;;;;;;;;;8.75;7.50;;;;;;;;6488162;46;8990;-68
2021/09/02 12:22:40;;;;;;;;;5.00;5.00;;;;;;;;6488695;39;9086;-68
2021/09/02 12:28:44;;;;;;;;;7.50;7.50;;;;;;;;6488362;31;8994;-69
2021/09/02 12:34:47;;;;;;;;;8.00;6.25;;;;;;;;6487085;46;8965;-69
2021/09/02 12:41:11;;;;;;;;;2.50;2.50;;;;;;;;6487581;31;8937;-69
2021/09/02 12:47:17;;;;;;;;;8.25;7.25;;;;;;;;6487515;39;8972;-69
2021/09/02 12:53:19;;;;;;;;;7.75;5.25;;;;;;;;6488517;39;9003;-68
2021/09/02 12:59:22;;;;;;;;;5.50;5.50;;;;;;;;6486885;46;9030;-69
2021/09/02 13:05:24;;;;;;;;;3.75;3.75;;;;;;;;6487371;31;8972;-68
2021/09/02 13:11:28;;;;;;;;;5.00;4.50;;;;;;;;6485006;39;8992;-68
2021/09/02 13:17:31;;;;;;;;;3.00;3.00;;;;;;;;6485705;39;8958;-67
2021/09/02 13:23:33;;;;;;;;;5.25;3.75;;;;;;;;6487625;39;9607;-68
2021/09/02 13:29:36;;;;;;;;;5.75;5.75;;;;;;;;6489332;46;8978;-68
2021/09/02 13:35:39;;;;;;;;;5.50;5.50;;;;;;;;6490993;46;9092;-68
2021/09/02 13:41:41;;;;;;;;;10.25;10.25;;;;;;;;6491086;31;8984;-68
2021/09/02 13:47:44;;;;;;;;;7.25;3.75;;;;;;;;6489221;39;9031;-68
2021/09/02 13:53:46;;;;;;;;;7.75;6.00;;;;;;;;6485466;39;9024;-68
2021/09/02 13:59:50;;;;;;;;;3.25;3.25;;;;;;;;6485493;46;8939;-67
2021/09/02 14:05:52;;;;;;;;;5.25;4.25;;;;;;;;6490207;39;9925;-68
2021/09/02 14:11:54;;;;;;;;;5.50;5.50;;;;;;;;6491230;39;9694;-68
2021/09/02 14:17:56;;;;;;;;;4.00;4.00;;;;;;;;6491712;31;9097;-67
2021/09/02 14:23:58;;;;;;;;;8.00;6.50;;;;;;;;6491994;39;9612;-67
2021/09/02 14:30:02;;;;;;;;;5.00;5.00;;;;;;;;6491207;39;9016;-67
2021/09/02 14:36:05;;;;;;;;;5.75;5.75;;;;;;;;6491673;46;8957;-67
2021/09/02 14:42:07;;;;;;;;;6.50;6.50;;;;;;;;6491369;46;9024;-68
2021/09/02 14:48:10;;;;;;;;;8.50;6.00;;;;;;;;6491566;39;8983;-67
2021/09/02 14:54:14;;;;;;;;;6.50;5.50;;;;;;;;6491194;39;9729;-67
2021/09/02 15:00:17;;;;;;;;;5.00;3.25;;;;;;;;6491574;39;9002;-69
2021/09/02 15:06:19;;;;;;;;;5.50;5.50;;;;;;;;6491150;46;8965;-68
2021/09/02 15:12:21;;;;;;;;;5.75;5.75;;;;;;;;6491650;39;8985;-67
2021/09/02 15:18:23;;;;;;;;;3.75;3.75;;;;;;;;6491061;46;8974;-69
2021/09/02 15:24:25;;;;;;;;;9.00;7.75;;;;;;;;6490903;39;9640;-68
2021/09/02 15:30:28;;;;;;;;;8.50;7.75;;;;;;;;6490541;46;9013;-68
2021/09/02 15:36:30;;;;;;;;;5.75;5.25;;;;;;;;6491639;39;9577;-67
2021/09/02 15:42:34;;;;;;;;;6.75;5.25;;;;;;;;6490758;39;8958;-68
2021/09/02 15:48:38;;;;;;;;;7.00;6.75;;;;;;;;6490991;39;9025;-68
2021/09/02 15:54:41;;;;;;;;;6.00;6.00;;;;;;;;6490626;46;9060;-68
2021/09/02 16:00:43;;;;;;;;;5.50;5.00;;;;;;;;6490795;46;8971;-67
2021/09/02 16:06:45;;;;;;;;;6.67;6.67;;;;;;;;6491026;46;8972;-67
2021/09/02 16:12:48;;;;;;;;;5.75;5.25;;;;;;;;6491828;39;9099;-68
2021/09/02 16:18:50;;;;;;;;;6.50;6.50;;;;;;;;6491010;39;9000;-69
2021/09/02 16:24:52;;;;;;;;;9.75;7.50;;;;;;;;6490333;39;8999;-67
2021/09/02 16:30:54;;;;;;;;;7.25;6.50;;;;;;;;6490055;46;8961;-67
2021/09/02 16:36:57;;;;;;;;;5.00;3.67;;;;;;;;6490244;39;8961;-68
2021/09/02 16:42:59;;;;;;;;;6.50;6.50;;;;;;;;6490294;46;8964;-68
2021/09/02 16:49:01;;;;;;;;;5.25;5.25;;;;;;;;6490427;39;8965;-66
2021/09/02 16:55:08;;;;;;;;;6.25;5.75;;;;;;;;6491008;39;9083;-69
2021/09/02 17:01:10;;;;;;;;;9.00;6.67;;;;;;;;6490042;39;8957;-68
2021/09/02 17:07:13;;;;;;;;;8.33;6.67;;;;;;;;6491283;31;9092;-67
2021/09/02 17:13:15;;;;;;;;;6.00;6.00;;;;;;;;6490404;39;8992;-69
2021/09/02 17:19:17;;;;;;;;;5.00;5.00;;;;;;;;6489765;46;8976;-68
2021/09/02 17:25:20;;;;;;;;;6.00;6.00;;;;;;;;6489965;47;8956;-67
2021/09/02 17:31:23;;;;;;;;;4.00;2.67;;;;;;;;6489531;39;9035;-67
2021/09/02 17:37:25;;;;;;;;;5.00;5.00;;;;;;;;6490023;47;8964;-68
2021/09/02 17:43:27;;;;;;;;;5.00;5.00;;;;;;;;6489794;47;8944;-67
2021/09/02 17:49:36;;;;;;;;;5.33;4.33;;;;;;;;6490092;39;9167;-68
2021/09/02 17:55:39;;;;;;;;;7.33;4.00;;;;;;;;6490178;39;9032;-67
2021/09/02 18:01:43;;;;;;;;;5.00;5.00;;;;;;;;6490076;39;9584;-67
2021/09/02 18:07:45;;;;;;;;;4.00;4.00;;;;;;;;6490784;39;8960;-70
2021/09/02 18:13:47;;;;;;;;;6.00;5.33;;;;;;;;6491088;39;8977;-68
2021/09/02 18:19:50;;;;;;;;;3.00;3.00;;;;;;;;6491597;46;9063;-68
2021/09/02 18:25:52;;;;;;;;;4.33;4.33;;;;;;;;6492140;31;8945;-68
2021/09/02 18:31:56;;;;;;;;;4.67;4.00;;;;;;;;6491228;39;9660;-69
2021/09/02 18:37:59;;;;;;;;;3.00;3.00;;;;;;;;6490815;39;8976;-68
2021/09/02 18:44:06;;;;;;;;;4.67;4.33;;;;;;;;6491115;31;8960;-67
2021/09/02 18:50:11;;;;;;;;;7.00;7.00;;;;;;;;6490578;46;9111;-68
2021/09/02 18:56:16;;;;;;;;;4.67;4.00;;;;;;;;6491449;31;8999;-67
2021/09/02 19:02:18;;;;;;;;;6.33;6.33;;;;;;;;6491219;39;9051;-69
2021/09/02 19:08:23;;;;;;;;;5.67;5.67;;;;;;;;6490762;39;8980;-67
2021/09/02 19:14:25;;;;;;;;;6.50;4.00;;;;;;;;6491822;39;8981;-67
2021/09/02 19:20:28;;;;;;;;;8.00;7.00;;;;;;;;6490926;46;9058;-69
2021/09/02 19:26:30;;;;;;;;;5.33;5.00;;;;;;;;6490618;46;8952;-67
2021/09/02 19:32:37;;;;;;;;;4.00;4.00;;;;;;;;6491419;39;9187;-69
2021/09/02 19:38:40;;;;;;;;;4.33;4.00;;;;;;;;6491307;31;9054;-69
2021/09/02 19:44:42;;;;;;;;;6.00;6.00;;;;;;;;6490639;46;8945;-68
2021/09/02 19:50:47;;;;;;;;;8.00;8.00;;;;;;;;6491719;31;9713;-68
2021/09/02 19:57:06;;;;;;;;;6.33;6.00;;;;;;;;6490348;39;8920;-68
2021/09/02 20:03:36;;;;;;;;;13.67;8.33;;;;;;;;6490584;31;8952;-67
2021/09/02 20:09:41;;;;;;;;;4.33;3.67;;;;;;;;6490359;46;9019;-67
2021/09/02 20:15:47;;;;;;;;;6.00;6.00;;;;;;;;6490832;39;8996;-68
2021/09/02 20:21:50;;;;;;;;;7.67;7.67;;;;;;;;6490586;39;8949;-67
2021/09/02 20:27:53;;;;;;;;;5.00;5.00;;;;;;;;6489928;46;9085;-67
2021/09/02 20:34:00;;;;;;;;;7.00;7.00;;;;;;;;6490307;46;8972;-67
2021/09/02 20:40:07;;;;;;;;;8.00;7.00;;;;;;;;6490546;46;8971;-67
2021/09/02 20:46:11;;;;;;;;;9.00;7.00;;;;;;;;6490756;39;8969;-68
2021/09/02 20:52:16;;;;;;;;;6.67;6.67;;;;;;;;6489599;39;9050;-67
2021/09/02 20:58:19;;;;;;;;;8.00;7.00;;;;;;;;6490367;39;9034;-68
2021/09/02 21:04:21;;;;;;;;;8.00;8.00;;;;;;;;6489319;46;9157;-68
2021/09/02 21:10:25;;;;;;;;;7.33;5.67;;;;;;;;6489926;46;8988;-68
2021/09/02 21:16:29;;;;;;;;;8.00;8.00;;;;;;;;6469648;36;9999747;-68
2021/09/02 21:22:35;;;;;;;;;5.33;5.33;;;;;;;;6490464;39;10071;-67
2021/09/02 21:28:40;;;;;;;;;8.00;8.00;;;;;;;;6490045;39;8957;-67
2021/09/02 21:35:08;;;;;;;;;9.00;7.00;;;;;;;;6489906;39;8996;-68
2021/09/02 21:41:23;;;;;;;;;9.00;8.33;;;;;;;;6490369;39;9003;-67
2021/09/02 21:47:38;;;;;;;;;8.00;8.00;;;;;;;;6491925;31;8953;-68
2021/09/02 21:53:43;;;;;;;;;8.00;8.00;;;;;;;;6491928;39;9131;-68
2021/09/02 21:59:48;;;;;;;;;7.50;7.50;;;;;;;;6492129;31;9083;-67
2021/09/02 22:05:50;;;;;;;;;9.67;7.67;;;;;;;;6492025;39;8794;-67
2021/09/02 22:12:35;;;;;;;;;12.33;9.00;;;;;;;;6490913;46;9083;-68
2021/09/02 22:19:01;;;;;;;;;9.00;8.00;;;;;;;;6492119;39;8952;-67
2021/09/02 22:25:07;;;;;;;;;8.67;8.00;;;;;;;;6492239;39;8949;-69
2021/09/02 22:31:11;;;;;;;;;7.33;7.33;;;;;;;;6491559;39;9015;-67
2021/09/02 22:37:15;;;;;;;;;8.33;8.33;;;;;;;;6491913;39;9104;-67
2021/09/02 22:43:18;;;;;;;;;9.33;6.33;;;;;;;;6491425;39;8952;-67
2021/09/02 22:49:22;;;;;;;;;7.33;7.33;;;;;;;;6491767;39;9028;-68
2021/09/02 22:55:25;;;;;;;;;10.00;8.00;;;;;;;;6491494;31;9000;-69
2021/09/02 23:01:28;;;;;;;;;8.33;5.00;;;;;;;;6491879;39;8991;-68
2021/09/02 23:07:37;;;;;;;;;9.00;7.00;;;;;;;;6491025;39;8972;-67
2021/09/02 23:13:49;;;;;;;;;8.00;7.33;;;;;;;;6491888;39;9000;-69
2021/09/02 23:19:52;;;;;;;;;11.00;9.00;;;;;;;;6491376;39;8996;-68
2021/09/02 23:26:00;;;;;;;;;9.67;8.33;;;;;;;;6492257;39;8937;-68
2021/09/02 23:32:02;;;;;;;;;8.67;8.67;;;;;;;;6491011;31;8972;-68
2021/09/02 23:38:06;;;;;;;;;10.33;8.67;;;;;;;;6491088;46;8980;-67
2021/09/02 23:44:12;;;;;;;;;9.00;9.00;;;;;;;;6491197;31;8991;-68
2021/09/02 23:50:15;;;;;;;;;10.33;10.00;;;;;;;;6491452;39;9005;-67
2021/09/02 23:56:17;;;;;;;;;10.33;9.00;;;;;;;;6491112;31;8948;-68
